createdAt,value
2023-02-14T00:00:21.867Z,40.78
2023-02-14T00:10:23.294Z,40.80
2023-02-14T00:20:25.174Z,40.74
2023-02-14T00:30:26.907Z,41.07
2023-02-14T00:40:29.032Z,40.74
2023-02-14T00:50:30.406Z,40.95
2023-02-14T01:00:31.841Z,40.88
2023-02-14T01:10:33.299Z,40.85
2023-02-14T01:20:35.124Z,40.94
2023-02-14T01:30:37.131Z,41.04
2023-02-14T01:40:44.730Z,41.01
2023-02-14T01:50:46.388Z,41.04
2023-02-14T02:00:57.130Z,40.90
2023-02-14T02:10:58.953Z,40.91
2023-02-14T02:21:15.525Z,40.87
2023-02-14T02:31:54.544Z,41.15
2023-02-14T02:42:06.803Z,41.13
2023-02-14T02:52:49.089Z,41.26
2023-02-14T03:03:11.008Z,41.24
2023-02-14T03:13:26.701Z,41.38
2023-02-14T03:23:30.344Z,41.32
2023-02-14T03:33:41.863Z,41.43
2023-02-14T03:43:48.441Z,41.58
2023-02-14T03:53:51.708Z,41.50
2023-02-14T04:03:53.799Z,41.61
2023-02-14T04:13:55.486Z,41.52
2023-02-14T04:23:57.068Z,41.70
2023-02-14T04:33:58.651Z,41.57
2023-02-14T04:44:00.040Z,41.56
2023-02-14T04:54:01.442Z,41.37
2023-02-14T05:04:02.948Z,41.40
2023-02-14T05:14:04.334Z,41.42
2023-02-14T05:24:05.857Z,41.12
2023-02-14T05:34:07.366Z,40.79
2023-02-14T05:44:08.756Z,40.80
2023-02-14T05:54:11.389Z,40.30
2023-02-14T06:04:12.810Z,40.27
2023-02-14T06:14:14.246Z,39.91
2023-02-14T06:24:15.631Z,40.02
2023-02-14T06:34:17.151Z,39.74
2023-02-14T06:44:18.697Z,39.96
2023-02-14T06:54:20.275Z,39.84
2023-02-14T07:04:22.235Z,39.86
2023-02-14T07:14:23.816Z,40.02
2023-02-14T07:24:25.410Z,39.82
2023-02-14T07:34:27.233Z,39.46
2023-02-14T07:44:28.667Z,38.98
2023-02-14T07:54:30.322Z,38.30
2023-02-14T08:04:33.742Z,37.49
2023-02-14T08:14:35.803Z,37.15
2023-02-14T08:24:37.338Z,36.68
2023-02-14T08:34:38.827Z,36.06
2023-02-14T08:44:40.219Z,35.42
2023-02-14T08:54:41.773Z,34.91
2023-02-14T09:04:43.156Z,34.69
2023-02-14T09:14:44.875Z,34.47
2023-02-14T09:24:46.299Z,33.93
2023-02-14T09:35:05.900Z,34.01
2023-02-14T09:45:15.175Z,33.76
2023-02-14T09:55:16.812Z,33.31
2023-02-14T10:05:24.538Z,33.13
2023-02-14T10:15:28.146Z,33.98
2023-02-14T10:25:34.218Z,34.56
2023-02-14T10:35:56.982Z,34.87
2023-02-14T10:46:29.469Z,35.21
2023-02-14T10:56:34.973Z,35.47
2023-02-14T11:06:36.362Z,35.93
2023-02-14T11:16:37.972Z,35.80
2023-02-14T11:26:39.396Z,36.02
2023-02-14T11:36:41.450Z,36.30
2023-02-14T11:46:52.779Z,36.50
2023-02-14T11:56:56.958Z,36.70
2023-02-14T12:07:14.282Z,37.06
2023-02-14T12:17:31.596Z,37.10
2023-02-14T12:27:53.727Z,37.12
2023-02-14T12:38:20.170Z,37.33
2023-02-14T12:48:43.275Z,37.64
2023-02-14T12:58:53.488Z,37.59
2023-02-14T13:09:19.090Z,37.65
2023-02-14T13:20:00.147Z,37.57
2023-02-14T13:30:26.231Z,37.80
2023-02-14T13:40:28.179Z,37.67
2023-02-14T13:50:29.595Z,37.83
2023-02-14T14:00:39.139Z,37.87
2023-02-14T14:10:45.057Z,37.87
2023-02-14T14:20:47.933Z,37.97
2023-02-14T14:30:49.402Z,37.96
2023-02-14T14:40:50.926Z,37.98
2023-02-14T14:50:52.357Z,38.03
2023-02-14T15:00:53.796Z,38.05
2023-02-14T15:11:03.967Z,38.24
2023-02-14T15:21:05.337Z,38.04
2023-02-14T15:31:07.739Z,37.97
2023-02-14T15:41:09.354Z,38.16
2023-02-14T15:51:22.087Z,38.23
2023-02-14T16:01:23.557Z,38.39
2023-02-14T16:11:37.903Z,38.61
2023-02-14T16:21:39.437Z,38.67
2023-02-14T16:32:01.238Z,38.82
2023-02-14T16:42:09.151Z,38.79
2023-02-14T16:52:15.834Z,38.89
2023-02-14T17:02:19.071Z,39.00
2023-02-14T17:12:23.701Z,39.01
2023-02-14T17:22:25.578Z,39.08
2023-02-14T17:32:27.240Z,39.02
2023-02-14T17:42:30.550Z,39.13
2023-02-14T17:52:32.030Z,39.25
2023-02-14T18:02:33.567Z,39.30
2023-02-14T18:12:34.968Z,39.27
2023-02-14T18:22:36.740Z,39.38
2023-02-14T18:32:38.211Z,39.81
2023-02-14T18:42:39.595Z,39.87
2023-02-14T18:52:40.978Z,39.96
2023-02-14T19:02:42.516Z,39.66
2023-02-14T19:12:43.994Z,39.47
2023-02-14T19:22:45.405Z,39.92
2023-02-14T19:32:46.965Z,39.82
2023-02-14T19:42:48.842Z,39.74
2023-02-14T19:52:50.360Z,40.16
2023-02-14T20:02:51.885Z,40.13
2023-02-14T20:12:53.447Z,40.23
2023-02-14T20:22:55.012Z,40.46
2023-02-14T20:32:56.601Z,40.52
2023-02-14T20:42:58.144Z,40.65
2023-02-14T20:52:59.681Z,40.67
2023-02-14T21:03:01.144Z,40.89
2023-02-14T21:13:02.555Z,40.87
2023-02-14T21:23:03.932Z,40.84
2023-02-14T21:33:05.351Z,40.85
2023-02-14T21:43:06.726Z,41.25
2023-02-14T21:53:08.312Z,41.00
2023-02-14T22:03:11.697Z,41.14
2023-02-14T22:13:13.696Z,40.69
2023-02-14T22:23:15.097Z,41.01
2023-02-14T22:33:16.624Z,40.83
2023-02-14T22:43:18.030Z,41.11
2023-02-14T22:53:19.415Z,41.37
2023-02-14T23:03:20.881Z,41.19
2023-02-14T23:13:40.796Z,41.43
2023-02-14T23:23:42.355Z,41.13
2023-02-14T23:33:43.779Z,40.88
2023-02-14T23:43:45.172Z,41.18
2023-02-14T23:53:46.712Z,41.43
